Time;durP1;ratioP1;P1;durP2;ratioP2;P2;SDS_P1;SDS_P2;PMS_P1;PMS_P2;Temp;Humidity;BMP_temperature;BMP_pressure;BME280_temperature;BME280_humidity;BME280_pressure;Samples;Min_cycle;Max_cycle;Signal;HPM_P1;HPM_P2
2022/08/08 00:00:01;;;;;;;;;;;21.90;51.10;;;;;;4907312;29;19911;-86
2022/08/08 00:02:31;;;;;;;;;;;21.70;51.50;;;;;;4906897;29;19910;-87
2022/08/08 00:05:26;;;;;;;;;;;21.80;51.20;;;;;;4907009;29;19942;-86
2022/08/08 00:08:07;;;;;;;;;;;21.80;51.00;;;;;;4885634;29;20077;-86
2022/08/08 00:10:52;;;;;;;;;;;21.80;51.30;;;;;;4903017;29;19916;-86
2022/08/08 00:13:21;;;;;;;;;;;21.60;51.60;;;;;;4887478;29;20763;-86
2022/08/08 00:15:54;;;;;;;;;;;21.50;52.10;;;;;;4914468;28;20337;-85
2022/08/08 00:18:23;;;;;;;;;;;21.40;52.00;;;;;;4967041;28;20406;-86
2022/08/08 00:20:52;;;;;;;;;;;21.50;51.90;;;;;;4966675;28;20018;-86
2022/08/08 00:23:56;;;;;;;;;;;21.50;51.70;;;;;;4957095;28;19956;-85
2022/08/08 00:26:26;;;;;;;;;;;21.50;51.80;;;;;;4906843;29;19911;-86
2022/08/08 00:28:58;;;;;;;;;;;21.30;52.10;;;;;;4906823;29;19926;-85
2022/08/08 00:31:28;;;;;;;;;;;21.20;52.10;;;;;;4906517;29;19962;-85
2022/08/08 00:37:03;;;;;;;;;;;21.20;52.70;;;;;;4897951;29;19974;-85
2022/08/08 00:39:49;;;;;;;;;;;21.20;52.60;;;;;;4894817;29;20417;-85
2022/08/08 00:42:15;;;;;;;;;;;21.20;52.30;;;;;;4891202;29;19911;-86
2022/08/08 00:44:41;;;;;;;;;;;21.20;52.30;;;;;;4889901;29;19911;-85
2022/08/08 00:47:25;;;;;;;;;;;21.20;52.50;;;;;;4894035;29;19958;-86
2022/08/08 00:49:53;;;;;;;;;;;21.00;53.40;;;;;;4906510;29;19918;-86
2022/08/08 00:52:22;;;;;;;;;;;21.00;52.90;;;;;;4906341;29;19917;-86
2022/08/08 00:55:07;;;;;;;;;;;20.90;53.10;;;;;;4904317;29;20419;-86
2022/08/08 00:58:02;;;;;;;;;;;21.00;53.00;;;;;;4945864;28;19964;-86
2022/08/08 01:00:29;;;;;;;;;;;20.90;53.10;;;;;;4966551;28;19964;-86
2022/08/08 01:02:58;;;;;;;;;;;20.80;53.40;;;;;;4965793;28;19910;-86
2022/08/08 01:05:42;;;;;;;;;;;20.80;53.60;;;;;;4966453;28;19953;-86
2022/08/08 01:08:24;;;;;;;;;;;20.80;53.40;;;;;;4966190;28;19909;-86
2022/08/08 01:10:53;;;;;;;;;;;20.70;53.60;;;;;;4964619;28;19913;-86
2022/08/08 01:13:30;;;;;;;;;;;20.70;53.60;;;;;;4966387;28;20005;-84
2022/08/08 01:16:15;;;;;;;;;;;20.60;53.90;;;;;;4966350;28;20040;-86
2022/08/08 01:18:40;;;;;;;;;;;20.60;53.90;;;;;;4966134;28;19906;-86
2022/08/08 01:21:25;;;;;;;;;;;20.60;53.90;;;;;;4965955;28;20872;-86
2022/08/08 01:23:56;;;;;;;;;;;20.50;54.20;;;;;;4966414;28;19913;-86
2022/08/08 01:26:41;;;;;;;;;;;20.60;54.10;;;;;;4965941;28;20001;-86
2022/08/08 01:29:29;;;;;;;;;;;20.50;54.20;;;;;;4966251;28;19917;-86
2022/08/08 01:31:58;;;;;;;;;;;20.50;54.20;;;;;;4965333;28;19917;-86
2022/08/08 01:34:23;;;;;;;;;;;20.40;54.50;;;;;;4965715;28;19972;-86
2022/08/08 01:36:52;;;;;;;;;;;20.40;54.40;;;;;;4965377;28;19922;-85
2022/08/08 01:39:26;;;;;;;;;;;20.40;54.60;;;;;;4965999;28;19910;-87
2022/08/08 01:41:58;;;;;;;;;;;20.30;54.80;;;;;;4965584;28;19914;-86
2022/08/08 01:44:42;;;;;;;;;;;20.20;55.10;;;;;;4965651;28;19910;-86
2022/08/08 01:47:13;;;;;;;;;;;20.30;55.00;;;;;;4964996;28;20001;-86
2022/08/08 01:49:47;;;;;;;;;;;20.30;55.10;;;;;;4965098;28;20430;-86
2022/08/08 01:52:28;;;;;;;;;;;20.20;55.10;;;;;;4965250;28;19930;-86
2022/08/08 01:55:10;;;;;;;;;;;20.10;55.40;;;;;;4963642;28;19929;-86
2022/08/08 01:57:41;;;;;;;;;;;20.00;55.60;;;;;;4965197;28;19945;-86
2022/08/08 02:00:11;;;;;;;;;;;20.10;55.50;;;;;;4965717;28;19910;-86
2022/08/08 02:02:56;;;;;;;;;;;20.10;55.50;;;;;;4965569;28;19916;-86
2022/08/08 02:05:51;;;;;;;;;;;20.10;55.60;;;;;;4965952;28;19910;-86
2022/08/08 02:08:17;;;;;;;;;;;20.00;55.70;;;;;;4960641;28;19917;-86
2022/08/08 02:11:01;;;;;;;;;;;20.10;55.80;;;;;;4965614;28;19910;-86
2022/08/08 02:13:45;;;;;;;;;;;20.00;56.00;;;;;;4965529;28;19916;-85
2022/08/08 02:16:17;;;;;;;;;;;20.00;56.00;;;;;;4965436;28;20114;-85
2022/08/08 02:18:52;;;;;;;;;;;19.90;56.30;;;;;;4965829;28;19914;-86
2022/08/08 02:24:16;;;;;;;;;;;19.80;56.50;;;;;;4965642;28;19984;-86
2022/08/08 02:26:45;;;;;;;;;;;19.70;56.60;;;;;;4965382;28;20000;-86
2022/08/08 02:29:22;;;;;;;;;;;19.70;57.00;;;;;;4965385;28;19953;-86
2022/08/08 02:32:07;;;;;;;;;;;19.60;57.00;;;;;;4965340;28;19937;-86
2022/08/08 02:34:55;;;;;;;;;;;19.60;57.00;;;;;;4964848;28;19961;-86
2022/08/08 02:37:39;;;;;;;;;;;19.60;57.10;;;;;;4964962;28;20409;-86
2022/08/08 02:40:16;;;;;;;;;;;19.60;57.10;;;;;;4964772;28;19910;-86
2022/08/08 02:42:41;;;;;;;;;;;19.50;57.20;;;;;;4964796;28;19910;-86
2022/08/08 02:45:12;;;;;;;;;;;19.50;57.30;;;;;;4964382;28;19960;-86
2022/08/08 02:48:07;;;;;;;;;;;19.60;57.20;;;;;;4972389;28;19988;-85
2022/08/08 02:50:35;;;;;;;;;;;19.50;57.30;;;;;;4906823;29;19922;-86
2022/08/08 02:53:00;;;;;;;;;;;19.50;57.40;;;;;;4904804;29;20024;-85
2022/08/08 02:55:42;;;;;;;;;;;19.40;57.50;;;;;;4904420;29;20499;-86
2022/08/08 02:58:26;;;;;;;;;;;19.40;57.40;;;;;;4904717;29;19911;-86
2022/08/08 03:01:01;;;;;;;;;;;19.30;57.80;;;;;;4904915;29;20057;-86
2022/08/08 03:03:52;;;;;;;;;;;19.30;58.00;;;;;;4907645;29;19911;-86
2022/08/08 03:06:37;;;;;;;;;;;19.40;57.80;;;;;;4908158;29;20351;-86
2022/08/08 03:09:21;;;;;;;;;;;19.30;57.80;;;;;;4907857;29;19911;-86
2022/08/08 03:11:55;;;;;;;;;;;19.30;58.00;;;;;;4891641;29;20359;-86
2022/08/08 03:14:21;;;;;;;;;;;19.20;58.20;;;;;;4891961;29;19911;-85
2022/08/08 03:16:51;;;;;;;;;;;19.20;58.30;;;;;;4891972;29;19973;-85
2022/08/08 03:19:20;;;;;;;;;;;19.20;58.20;;;;;;4892174;29;19915;-86
2022/08/08 03:21:45;;;;;;;;;;;19.00;58.60;;;;;;4907658;29;19911;-85
2022/08/08 03:24:11;;;;;;;;;;;19.10;58.60;;;;;;4907686;29;19926;-86
2022/08/08 03:26:38;;;;;;;;;;;19.10;58.60;;;;;;4927876;28;19910;-85
2022/08/08 03:29:07;;;;;;;;;;;19.10;58.50;;;;;;4967978;28;19909;-85
2022/08/08 03:34:17;;;;;;;;;;;19.00;58.70;;;;;;4968397;28;19956;-86
2022/08/08 03:36:42;;;;;;;;;;;19.00;58.90;;;;;;4967926;28;20798;-85
2022/08/08 03:39:12;;;;;;;;;;;18.90;59.30;;;;;;4967859;28;20384;-84
2022/08/08 03:41:37;;;;;;;;;;;18.90;59.20;;;;;;4967794;28;20751;-86
2022/08/08 03:44:03;;;;;;;;;;;18.80;59.30;;;;;;4967747;28;19914;-86
2022/08/08 03:46:28;;;;;;;;;;;18.90;59.30;;;;;;4967600;28;19910;-86
2022/08/08 03:48:58;;;;;;;;;;;18.80;59.30;;;;;;4967613;28;19964;-85
2022/08/08 03:51:24;;;;;;;;;;;18.80;59.30;;;;;;4967532;28;19910;-86
2022/08/08 03:53:53;;;;;;;;;;;18.70;59.60;;;;;;4967548;28;19921;-86
2022/08/08 03:56:19;;;;;;;;;;;18.70;59.70;;;;;;4984652;28;19928;-89
2022/08/08 03:58:48;;;;;;;;;;;18.70;59.70;;;;;;4986823;28;19941;-88
2022/08/08 04:01:14;;;;;;;;;;;18.70;59.80;;;;;;4986868;28;19910;-88
2022/08/08 04:03:43;;;;;;;;;;;18.50;60.20;;;;;;4986620;28;19909;-87
2022/08/08 04:06:08;;;;;;;;;;;18.40;60.60;;;;;;4986859;28;19933;-87
2022/08/08 04:08:35;;;;;;;;;;;18.40;60.80;;;;;;4986710;28;19906;-88
2022/08/08 04:11:01;;;;;;;;;;;18.50;60.20;;;;;;4982647;28;20318;-88
2022/08/08 04:13:27;;;;;;;;;;;18.50;60.20;;;;;;4985772;28;19909;-88
2022/08/08 04:15:52;;;;;;;;;;;18.50;60.40;;;;;;4986689;28;20893;-88
2022/08/08 04:18:18;;;;;;;;;;;18.50;60.30;;;;;;4986971;28;20283;-88
2022/08/08 04:20:44;;;;;;;;;;;18.50;60.40;;;;;;4986569;28;19910;-87
2022/08/08 04:23:09;;;;;;;;;;;18.40;60.50;;;;;;4986523;28;19909;-87
2022/08/08 04:25:35;;;;;;;;;;;18.20;61.20;;;;;;4986204;28;19996;-87
2022/08/08 04:28:00;;;;;;;;;;;18.20;61.20;;;;;;4986092;28;19949;-88
2022/08/08 04:30:26;;;;;;;;;;;18.30;61.10;;;;;;4986085;28;19910;-87
2022/08/08 04:32:52;;;;;;;;;;;18.20;61.20;;;;;;4986395;28;19910;-87
2022/08/08 04:35:17;;;;;;;;;;;18.20;61.30;;;;;;4986517;28;19913;-87
2022/08/08 04:37:43;;;;;;;;;;;18.20;61.20;;;;;;4986245;28;19910;-88
2022/08/08 04:40:09;;;;;;;;;;;18.10;61.50;;;;;;4986370;28;19910;-87
2022/08/08 04:42:35;;;;;;;;;;;18.20;61.40;;;;;;4986055;28;20510;-87
2022/08/08 04:45:01;;;;;;;;;;;18.10;61.30;;;;;;4986137;28;20011;-88
2022/08/08 04:47:26;;;;;;;;;;;18.20;61.30;;;;;;4973205;28;20398;-88
2022/08/08 04:49:52;;;;;;;;;;;18.20;61.40;;;;;;4986409;28;19926;-88
2022/08/08 04:52:17;;;;;;;;;;;18.00;61.70;;;;;;4985798;28;19909;-88
2022/08/08 04:54:43;;;;;;;;;;;18.10;61.60;;;;;;4985623;28;19957;-87
2022/08/08 04:57:09;;;;;;;;;;;18.10;62.10;;;;;;4968599;28;19914;-89
2022/08/08 04:59:35;;;;;;;;;;;18.00;61.70;;;;;;4986186;28;19910;-87
2022/08/08 05:02:00;;;;;;;;;;;18.40;60.90;;;;;;4967759;28;19906;-88
2022/08/08 05:04:26;;;;;;;;;;;19.10;59.20;;;;;;4985735;28;20334;-88
2022/08/08 05:06:51;;;;;;;;;;;19.50;58.40;;;;;;4985711;28;20032;-88
2022/08/08 05:09:17;;;;;;;;;;;19.80;57.60;;;;;;4985307;28;19910;-87
2022/08/08 05:11:43;;;;;;;;;;;20.00;57.00;;;;;;4982069;28;19921;-87
2022/08/08 05:14:10;;;;;;;;;;;20.20;56.80;;;;;;4985507;28;20361;-87
2022/08/08 05:16:36;;;;;;;;;;;20.30;56.70;;;;;;4985334;28;19918;-87
2022/08/08 05:19:02;;;;;;;;;;;20.80;55.80;;;;;;4985330;28;20026;-88
2022/08/08 05:21:27;;;;;;;;;;;20.80;55.60;;;;;;4985252;28;19909;-88
2022/08/08 05:23:53;;;;;;;;;;;21.10;55.60;;;;;;4984586;28;20689;-88
2022/08/08 05:26:20;;;;;;;;;;;21.40;54.80;;;;;;4985204;28;19967;-88
2022/08/08 05:28:45;;;;;;;;;;;21.40;54.90;;;;;;4985132;28;20482;-88
2022/08/08 05:31:11;;;;;;;;;;;21.40;55.10;;;;;;4985424;28;19913;-88
2022/08/08 05:33:36;;;;;;;;;;;21.80;54.10;;;;;;4985460;28;19971;-87
2022/08/08 05:36:02;;;;;;;;;;;21.90;54.10;;;;;;4985276;28;20295;-88
2022/08/08 05:38:28;;;;;;;;;;;22.00;54.20;;;;;;4984674;28;20012;-88
2022/08/08 05:40:55;;;;;;;;;;;22.10;53.90;;;;;;4985047;28;20029;-88
2022/08/08 05:43:28;;;;;;;;;;;22.30;53.50;;;;;;4985263;28;19916;-89
2022/08/08 05:45:57;;;;;;;;;;;22.20;53.70;;;;;;4979011;28;20696;-88
2022/08/08 05:48:23;;;;;;;;;;;22.50;53.40;;;;;;4979075;28;19910;-88
2022/08/08 05:50:49;;;;;;;;;;;22.80;52.70;;;;;;4985291;28;19909;-87
2022/08/08 05:53:15;;;;;;;;;;;22.90;52.40;;;;;;4984948;28;19909;-88
2022/08/08 05:55:42;;;;;;;;;;;23.30;52.10;;;;;;4984679;28;20008;-88
2022/08/08 05:58:11;;;;;;;;;;;23.50;51.60;;;;;;4984667;28;19909;-88
2022/08/08 06:00:37;;;;;;;;;;;23.50;51.50;;;;;;4984960;28;19910;-88
2022/08/08 06:03:09;;;;;;;;;;;23.60;51.40;;;;;;4985193;28;20626;-86
2022/08/08 06:05:38;;;;;;;;;;;23.90;51.00;;;;;;4984951;28;19913;-86
2022/08/08 06:08:06;;;;;;;;;;;24.30;50.50;;;;;;4966962;28;19916;-86
2022/08/08 06:10:32;;;;;;;;;;;24.30;50.70;;;;;;4981544;28;19933;-86
2022/08/08 06:12:59;;;;;;;;;;;24.40;50.20;;;;;;4985073;28;19955;-86
2022/08/08 06:15:25;;;;;;;;;;;24.70;50.20;;;;;;4972588;28;19918;-87
2022/08/08 06:17:52;;;;;;;;;;;25.30;49.10;;;;;;4966225;28;19910;-86
2022/08/08 06:20:17;;;;;;;;;;;25.80;48.30;;;;;;4967377;28;20004;-87
2022/08/08 06:22:43;;;;;;;;;;;25.80;48.10;;;;;;4984000;28;19997;-86
2022/08/08 06:25:09;;;;;;;;;;;26.70;47.50;;;;;;4985150;28;19949;-86
2022/08/08 06:27:37;;;;;;;;;;;27.10;46.60;;;;;;4984625;28;19964;-87
2022/08/08 06:30:04;;;;;;;;;;;26.80;46.50;;;;;;4984872;28;19983;-87
2022/08/08 06:32:30;;;;;;;;;;;27.10;46.80;;;;;;4984725;28;20366;-86
2022/08/08 06:35:02;;;;;;;;;;;27.40;46.60;;;;;;4985093;28;19910;-87
2022/08/08 06:37:31;;;;;;;;;;;27.20;46.50;;;;;;4988047;28;19968;-86
2022/08/08 06:40:01;;;;;;;;;;;27.00;46.90;;;;;;4988606;28;20523;-86
2022/08/08 06:42:28;;;;;;;;;;;27.00;46.70;;;;;;4988644;28;19913;-87
2022/08/08 06:44:53;;;;;;;;;;;27.80;45.30;;;;;;4988523;28;19941;-87
2022/08/08 06:47:19;;;;;;;;;;;28.30;45.00;;;;;;4975374;28;19952;-86
2022/08/08 06:49:46;;;;;;;;;;;28.20;45.00;;;;;;4988624;28;19906;-87
2022/08/08 06:52:11;;;;;;;;;;;27.80;45.80;;;;;;4987863;28;19910;-87
2022/08/08 06:54:37;;;;;;;;;;;27.50;45.90;;;;;;4988339;28;20391;-87
2022/08/08 06:57:03;;;;;;;;;;;28.00;45.90;;;;;;4986738;28;19922;-87
2022/08/08 06:59:29;;;;;;;;;;;28.10;45.30;;;;;;4958544;28;19949;-87
2022/08/08 07:01:59;;;;;;;;;;;28.90;44.80;;;;;;4988124;28;19956;-87
2022/08/08 07:04:33;;;;;;;;;;;28.60;44.60;;;;;;4988020;28;19969;-88
2022/08/08 07:06:59;;;;;;;;;;;29.00;44.50;;;;;;4969754;28;20001;-87
2022/08/08 07:09:27;;;;;;;;;;;29.50;44.00;;;;;;4970054;28;19917;-86
2022/08/08 07:11:54;;;;;;;;;;;29.20;43.90;;;;;;4984729;28;19964;-86
2022/08/08 07:14:32;;;;;;;;;;;28.90;44.20;;;;;;4987899;28;19910;-87
2022/08/08 07:17:01;;;;;;;;;;;29.70;44.00;;;;;;4987668;28;19928;-87
2022/08/08 07:19:35;;;;;;;;;;;30.30;43.00;;;;;;4987109;28;19910;-87
2022/08/08 07:22:05;;;;;;;;;;;29.90;43.30;;;;;;4987507;28;20052;-87
2022/08/08 07:24:36;;;;;;;;;;;30.10;42.70;;;;;;4987641;28;19912;-87
2022/08/08 07:27:04;;;;;;;;;;;29.80;43.10;;;;;;4987445;28;20010;-87
2022/08/08 07:29:32;;;;;;;;;;;30.30;42.60;;;;;;4986696;28;20367;-86
2022/08/08 07:31:57;;;;;;;;;;;31.40;42.40;;;;;;4969884;28;20290;-87
2022/08/08 07:34:23;;;;;;;;;;;31.10;42.20;;;;;;4987377;28;19914;-87
2022/08/08 07:36:49;;;;;;;;;;;31.20;41.90;;;;;;4969902;28;20417;-87
2022/08/08 07:39:21;;;;;;;;;;;31.30;41.70;;;;;;4987121;28;19917;-87
2022/08/08 07:41:48;;;;;;;;;;;32.40;41.10;;;;;;4986867;28;19917;-87
2022/08/08 07:44:14;;;;;;;;;;;33.60;40.60;;;;;;4987094;28;20382;-88
2022/08/08 07:46:39;;;;;;;;;;;32.60;40.70;;;;;;4973565;28;19917;-87
2022/08/08 07:49:05;;;;;;;;;;;32.70;41.20;;;;;;4986073;28;20286;-87
2022/08/08 07:51:31;;;;;;;;;;;32.60;40.90;;;;;;4986798;28;20576;-87
2022/08/08 07:54:15;;;;;;;;;;;32.80;40.30;;;;;;4986963;28;19941;-86
2022/08/08 07:56:47;;;;;;;;;;;33.00;40.00;;;;;;4968622;28;19921;-87
2022/08/08 07:59:14;;;;;;;;;;;33.10;40.40;;;;;;4986686;28;20004;-87
2022/08/08 08:01:44;;;;;;;;;;;33.40;39.80;;;;;;4986534;28;19917;-87
2022/08/08 08:04:13;;;;;;;;;;;33.60;40.00;;;;;;4986229;28;20314;-87
2022/08/08 08:06:39;;;;;;;;;;;34.60;39.60;;;;;;4986587;28;20028;-88
2022/08/08 08:09:10;;;;;;;;;;;34.60;38.80;;;;;;4986655;28;20008;-88
2022/08/08 08:11:38;;;;;;;;;;;35.50;38.10;;;;;;4983219;28;19910;-87
2022/08/08 08:14:04;;;;;;;;;;;35.30;38.10;;;;;;4986439;28;20040;-87
2022/08/08 08:16:39;;;;;;;;;;;35.40;38.20;;;;;;4986484;28;19964;-88
2022/08/08 08:19:06;;;;;;;;;;;35.40;37.90;;;;;;4967804;28;19959;-88
2022/08/08 08:21:42;;;;;;;;;;;35.70;37.20;;;;;;4986212;28;19909;-87
2022/08/08 08:24:08;;;;;;;;;;;36.00;38.00;;;;;;4986110;28;19910;-87
2022/08/08 08:26:34;;;;;;;;;;;35.20;38.10;;;;;;4986602;28;19918;-87
2022/08/08 08:28:59;;;;;;;;;;;35.30;37.10;;;;;;4986348;28;19953;-87
2022/08/08 08:31:25;;;;;;;;;;;34.70;37.60;;;;;;4985641;28;19910;-88
2022/08/08 08:33:50;;;;;;;;;;;35.80;38.50;;;;;;4985859;28;19960;-87
2022/08/08 08:36:19;;;;;;;;;;;35.10;38.30;;;;;;4986154;28;19917;-87
2022/08/08 08:38:44;;;;;;;;;;;34.90;38.20;;;;;;4986182;28;19945;-87
2022/08/08 08:41:12;;;;;;;;;;;35.10;38.40;;;;;;4968866;28;19932;-87
2022/08/08 08:43:41;;;;;;;;;;;35.30;37.90;;;;;;4986307;28;19917;-87
2022/08/08 08:46:08;;;;;;;;;;;36.20;37.90;;;;;;4977892;28;19961;-87
2022/08/08 08:48:33;;;;;;;;;;;37.50;36.70;;;;;;4980958;28;19917;-86
2022/08/08 08:51:00;;;;;;;;;;;36.50;37.40;;;;;;4985785;28;20399;-87
2022/08/08 08:53:26;;;;;;;;;;;36.70;37.30;;;;;;4968323;28;20702;-87
2022/08/08 08:55:53;;;;;;;;;;;37.60;37.10;;;;;;4985984;28;19928;-88
2022/08/08 08:58:31;;;;;;;;;;;36.60;37.90;;;;;;4985819;28;19968;-87
2022/08/08 09:01:01;;;;;;;;;;;37.30;37.40;;;;;;4985446;28;19909;-88
2022/08/08 09:03:26;;;;;;;;;;;37.80;36.90;;;;;;4985810;28;20602;-87
2022/08/08 09:05:52;;;;;;;;;;;37.00;36.90;;;;;;4985572;28;19910;-87
2022/08/08 09:08:19;;;;;;;;;;;37.50;36.70;;;;;;4985686;28;20035;-87
2022/08/08 09:10:45;;;;;;;;;;;38.20;36.40;;;;;;4982299;28;19989;-88
2022/08/08 09:13:11;;;;;;;;;;;38.00;36.50;;;;;;4968008;28;19968;-87
2022/08/08 09:15:37;;;;;;;;;;;38.50;36.30;;;;;;4985041;28;19917;-87
2022/08/08 09:18:03;;;;;;;;;;;38.30;35.50;;;;;;4985512;28;19913;-87
2022/08/08 09:20:28;;;;;;;;;;;39.20;35.40;;;;;;4985636;28;20393;-86
2022/08/08 09:22:54;;;;;;;;;;;39.70;34.60;;;;;;4985392;28;19948;-86
2022/08/08 09:25:20;;;;;;;;;;;39.50;35.10;;;;;;4967775;28;19909;-87
2022/08/08 09:27:45;;;;;;;;;;;39.30;34.20;;;;;;4985339;28;19955;-87
2022/08/08 09:30:13;;;;;;;;;;;39.60;34.00;;;;;;4984915;28;20024;-86
2022/08/08 09:32:48;;;;;;;;;;;40.20;34.10;;;;;;4985088;28;20611;-87
2022/08/08 09:35:19;;;;;;;;;;;39.10;34.10;;;;;;4984999;28;20016;-87
2022/08/08 09:37:52;;;;;;;;;;;38.50;34.20;;;;;;4967051;28;20468;-87
2022/08/08 09:40:27;;;;;;;;;;;38.60;34.30;;;;;;4985024;28;19909;-87
2022/08/08 09:42:53;;;;;;;;;;;39.20;34.20;;;;;;4984486;28;19968;-86
2022/08/08 09:45:20;;;;;;;;;;;38.70;34.30;;;;;;4982442;28;19910;-87
2022/08/08 09:47:46;;;;;;;;;;;39.00;34.40;;;;;;4974022;28;19917;-87
2022/08/08 09:50:13;;;;;;;;;;;39.40;33.80;;;;;;4984725;28;19916;-86
2022/08/08 09:52:40;;;;;;;;;;;39.20;34.90;;;;;;4985105;28;19910;-86
2022/08/08 09:55:06;;;;;;;;;;;39.80;34.40;;;;;;4984606;28;19997;-87
2022/08/08 09:57:38;;;;;;;;;;;39.40;33.90;;;;;;4984889;28;20334;-87
2022/08/08 10:00:06;;;;;;;;;;;38.90;33.70;;;;;;4966547;28;20012;-87
2022/08/08 10:02:35;;;;;;;;;;;40.70;33.30;;;;;;4984931;28;19913;-87
2022/08/08 10:05:09;;;;;;;;;;;40.00;33.20;;;;;;4984765;28;20023;-87
2022/08/08 10:07:35;;;;;;;;;;;40.20;33.00;;;;;;4984645;28;19914;-87
2022/08/08 10:10:00;;;;;;;;;;;41.10;32.90;;;;;;4986663;28;19968;-86
2022/08/08 10:12:33;;;;;;;;;;;40.10;33.30;;;;;;4987464;28;19916;-86
2022/08/08 10:14:59;;;;;;;;;;;39.60;33.90;;;;;;4990761;28;19909;-87
2022/08/08 10:17:25;;;;;;;;;;;40.10;33.90;;;;;;4990782;28;19920;-87
2022/08/08 10:19:55;;;;;;;;;;;39.20;33.50;;;;;;4973568;28;19913;-87
2022/08/08 10:22:22;;;;;;;;;;;39.30;34.60;;;;;;4990984;28;19909;-87
2022/08/08 10:24:48;;;;;;;;;;;38.80;34.10;;;;;;4973180;28;20429;-87
2022/08/08 10:27:13;;;;;;;;;;;37.70;34.50;;;;;;4991086;28;20378;-86
2022/08/08 10:29:39;;;;;;;;;;;36.50;34.80;;;;;;4990547;28;19997;-87
2022/08/08 10:34:56;;;;;;;;;;;34.60;35.10;;;;;;4991021;28;20491;-86
2022/08/08 10:37:29;;;;;;;;;;;34.20;35.90;;;;;;4991128;28;20390;-87
2022/08/08 10:39:55;;;;;;;;;;;33.80;37.40;;;;;;4990831;28;20410;-87
2022/08/08 10:42:30;;;;;;;;;;;33.60;37.30;;;;;;4990176;28;19910;-87
2022/08/08 10:45:04;;;;;;;;;;;33.80;38.00;;;;;;4990702;28;19909;-86
2022/08/08 10:47:29;;;;;;;;;;;33.80;37.90;;;;;;4977669;28;19917;-86
2022/08/08 10:49:58;;;;;;;;;;;33.00;35.60;;;;;;4991105;28;19935;-88
2022/08/08 10:52:24;;;;;;;;;;;33.10;37.10;;;;;;4990438;28;20020;-87
2022/08/08 10:54:53;;;;;;;;;;;32.60;38.00;;;;;;4990483;28;19918;-87
2022/08/08 10:57:19;;;;;;;;;;;33.30;38.60;;;;;;4990045;28;19956;-87
2022/08/08 10:59:54;;;;;;;;;;;33.60;38.20;;;;;;4990797;28;19949;-86
2022/08/08 11:02:27;;;;;;;;;;;33.30;38.90;;;;;;4990516;28;20415;-87
2022/08/08 11:04:55;;;;;;;;;;;32.60;38.30;;;;;;4990972;28;19956;-86
2022/08/08 11:07:27;;;;;;;;;;;31.80;38.20;;;;;;4990447;28;20307;-87
2022/08/08 11:09:53;;;;;;;;;;;32.30;37.30;;;;;;4990757;28;19985;-86
2022/08/08 11:12:18;;;;;;;;;;;32.60;38.00;;;;;;4986586;28;19917;-86
2022/08/08 11:14:51;;;;;;;;;;;32.70;39.20;;;;;;4990777;28;20654;-86
2022/08/08 11:17:21;;;;;;;;;;;32.30;38.70;;;;;;4990813;28;19918;-86
2022/08/08 11:19:47;;;;;;;;;;;31.90;37.40;;;;;;4990612;28;19910;-86
2022/08/08 11:22:13;;;;;;;;;;;32.40;38.80;;;;;;4987531;28;19935;-86
2022/08/08 11:24:39;;;;;;;;;;;32.00;39.80;;;;;;4987969;28;19916;-86
2022/08/08 11:27:06;;;;;;;;;;;32.40;40.40;;;;;;4987205;28;20297;-86
2022/08/08 11:29:34;;;;;;;;;;;32.40;38.20;;;;;;4987489;28;19910;-86
2022/08/08 11:32:01;;;;;;;;;;;32.40;37.90;;;;;;4987733;28;19910;-87
2022/08/08 11:34:31;;;;;;;;;;;32.30;40.00;;;;;;4987695;28;19964;-86
2022/08/08 11:36:57;;;;;;;;;;;32.50;41.20;;;;;;4987538;28;19988;-86
2022/08/08 11:39:23;;;;;;;;;;;32.60;40.40;;;;;;4987804;28;19920;-87
2022/08/08 11:41:49;;;;;;;;;;;32.40;39.70;;;;;;4969389;28;19909;-87
2022/08/08 11:44:15;;;;;;;;;;;32.30;39.10;;;;;;4987620;28;19909;-86
2022/08/08 11:46:41;;;;;;;;;;;32.40;39.40;;;;;;4974714;28;19933;-87
2022/08/08 11:49:07;;;;;;;;;;;32.30;39.30;;;;;;4987469;28;19928;-86
2022/08/08 11:51:33;;;;;;;;;;;32.20;39.90;;;;;;4986976;28;19921;-86
2022/08/08 11:53:59;;;;;;;;;;;32.30;39.50;;;;;;4987271;28;19910;-86
2022/08/08 11:56:30;;;;;;;;;;;32.10;38.70;;;;;;4986650;28;19928;-87
2022/08/08 11:59:04;;;;;;;;;;;32.20;38.90;;;;;;4969197;28;19931;-86
2022/08/08 12:01:30;;;;;;;;;;;32.10;37.30;;;;;;4987255;28;19913;-86
2022/08/08 12:03:55;;;;;;;;;;;32.10;36.80;;;;;;4987050;28;20414;-86
2022/08/08 12:06:21;;;;;;;;;;;32.00;36.80;;;;;;4969195;28;19909;-86
2022/08/08 12:08:47;;;;;;;;;;;32.00;34.60;;;;;;4986646;28;20433;-86
2022/08/08 12:11:14;;;;;;;;;;;31.80;32.80;;;;;;4983064;28;19935;-86
2022/08/08 12:13:40;;;;;;;;;;;32.00;34.30;;;;;;4986839;28;19945;-86
2022/08/08 12:16:16;;;;;;;;;;;31.90;34.20;;;;;;4969123;28;19913;-87
2022/08/08 12:18:46;;;;;;;;;;;32.10;35.90;;;;;;4986827;28;19909;-87
2022/08/08 12:21:19;;;;;;;;;;;31.70;34.20;;;;;;4986535;28;20295;-85
2022/08/08 12:23:45;;;;;;;;;;;31.50;34.20;;;;;;4986384;28;19910;-87
2022/08/08 12:26:11;;;;;;;;;;;31.80;35.00;;;;;;4986273;28;19979;-86
2022/08/08 12:28:37;;;;;;;;;;;31.90;33.50;;;;;;4986301;28;19909;-86
2022/08/08 12:31:06;;;;;;;;;;;31.70;33.60;;;;;;4986191;28;20637;-87
2022/08/08 12:33:32;;;;;;;;;;;31.70;32.60;;;;;;4986192;28;19917;-87
2022/08/08 12:35:57;;;;;;;;;;;31.90;34.30;;;;;;4986511;28;19922;-87
2022/08/08 12:38:23;;;;;;;;;;;31.70;33.60;;;;;;4985660;28;19957;-86
2022/08/08 12:40:51;;;;;;;;;;;31.80;32.30;;;;;;4968962;28;19910;-86
2022/08/08 12:43:26;;;;;;;;;;;31.80;32.70;;;;;;4986257;28;19909;-87
2022/08/08 12:45:52;;;;;;;;;;;31.60;32.40;;;;;;4980025;28;19910;-87
2022/08/08 12:48:18;;;;;;;;;;;31.70;32.30;;;;;;4979657;28;19916;-86
2022/08/08 12:50:48;;;;;;;;;;;31.60;32.50;;;;;;4985842;28;19910;-86
2022/08/08 12:53:22;;;;;;;;;;;31.50;32.30;;;;;;4985637;28;19914;-86
2022/08/08 12:55:54;;;;;;;;;;;31.40;32.10;;;;;;4986260;28;19922;-86
2022/08/08 12:58:21;;;;;;;;;;;31.50;30.40;;;;;;4986344;28;19909;-85
2022/08/08 13:00:46;;;;;;;;;;;31.40;31.00;;;;;;4986011;28;20097;-87
2022/08/08 13:03:22;;;;;;;;;;;31.30;31.50;;;;;;4985903;28;20005;-86
2022/08/08 13:05:47;;;;;;;;;;;31.30;32.40;;;;;;4985663;28;20100;-86
2022/08/08 13:08:16;;;;;;;;;;;31.50;33.80;;;;;;4985363;28;20012;-86
2022/08/08 13:10:52;;;;;;;;;;;31.60;33.30;;;;;;4982322;28;19910;-87
2022/08/08 13:13:32;;;;;;;;;;;31.50;32.90;;;;;;4985610;28;19909;-86
2022/08/08 13:16:15;;;;;;;;;;;31.70;33.90;;;;;;4985467;28;19917;-87
2022/08/08 13:18:41;;;;;;;;;;;31.50;34.40;;;;;;4985856;28;19909;-86
2022/08/08 13:21:11;;;;;;;;;;;31.50;34.50;;;;;;4985359;28;19910;-87
2022/08/08 13:23:37;;;;;;;;;;;31.40;35.10;;;;;;4985289;28;19988;-86
2022/08/08 13:26:03;;;;;;;;;;;31.60;35.80;;;;;;4985441;28;19914;-87
2022/08/08 13:28:29;;;;;;;;;;;31.70;35.60;;;;;;4967559;28;19909;-86
2022/08/08 13:30:55;;;;;;;;;;;31.40;35.90;;;;;;4985337;28;20000;-87
2022/08/08 13:33:21;;;;;;;;;;;31.30;36.50;;;;;;4985106;28;20690;-87
2022/08/08 13:35:47;;;;;;;;;;;31.20;36.90;;;;;;4985652;28;19917;-86
2022/08/08 13:38:12;;;;;;;;;;;31.20;36.80;;;;;;4967223;28;19921;-87
2022/08/08 13:40:38;;;;;;;;;;;31.50;38.70;;;;;;4985277;28;19916;-86
2022/08/08 13:43:03;;;;;;;;;;;31.90;38.80;;;;;;4985294;28;19914;-86
2022/08/08 13:45:29;;;;;;;;;;;31.70;38.20;;;;;;4981192;28;19941;-86
2022/08/08 13:47:56;;;;;;;;;;;31.70;37.00;;;;;;4975762;28;19909;-86
2022/08/08 13:50:21;;;;;;;;;;;31.50;37.30;;;;;;4985082;28;19969;-86
2022/08/08 13:52:47;;;;;;;;;;;31.80;36.60;;;;;;4984563;28;19936;-86
2022/08/08 13:55:13;;;;;;;;;;;31.60;36.90;;;;;;4984622;28;19928;-87
2022/08/08 13:57:38;;;;;;;;;;;31.40;37.10;;;;;;4985101;28;19914;-86
2022/08/08 14:00:09;;;;;;;;;;;31.40;37.60;;;;;;4985397;28;19910;-86
2022/08/08 14:02:35;;;;;;;;;;;31.30;37.70;;;;;;4985256;28;19956;-86
2022/08/08 14:05:02;;;;;;;;;;;31.20;38.30;;;;;;4984960;28;19906;-86
2022/08/08 14:07:32;;;;;;;;;;;31.20;39.30;;;;;;4984141;28;19932;-87
2022/08/08 14:10:08;;;;;;;;;;;31.30;38.40;;;;;;4967151;28;19909;-87
2022/08/08 14:12:35;;;;;;;;;;;31.30;38.60;;;;;;4981858;28;19985;-86
2022/08/08 14:15:00;;;;;;;;;;;31.50;37.60;;;;;;4984644;28;20020;-86
2022/08/08 14:17:26;;;;;;;;;;;31.30;38.00;;;;;;4984840;28;20894;-87
2022/08/08 14:19:59;;;;;;;;;;;31.90;37.60;;;;;;4984665;28;19910;-86
2022/08/08 14:22:25;;;;;;;;;;;31.50;37.90;;;;;;4984887;28;19925;-86
2022/08/08 14:24:52;;;;;;;;;;;31.60;37.50;;;;;;4985028;28;19948;-87
2022/08/08 14:27:23;;;;;;;;;;;31.60;38.00;;;;;;4985197;28;19921;-87
2022/08/08 14:29:52;;;;;;;;;;;31.70;37.30;;;;;;4984855;28;19925;-86
2022/08/08 14:32:18;;;;;;;;;;;31.80;37.40;;;;;;4984841;28;19917;-86
2022/08/08 14:34:48;;;;;;;;;;;31.60;37.10;;;;;;4984622;28;20166;-85
2022/08/08 14:37:16;;;;;;;;;;;31.60;36.60;;;;;;4984757;28;19924;-87
2022/08/08 14:39:49;;;;;;;;;;;31.60;36.90;;;;;;4984522;28;20048;-87